Terminal Aerodrome Forecast
Issued by NWS

Home | Current Version | Previous Version | Text Only | Print | Product List | Glossary On
Versions: 1 2 3 4 5 6 7 8 9 10 11 12 13 14 15 16 17 18 19
913
FTUS43 KLSX 262339
TAFUIN
TAF
KUIN 262339Z 2700/2724 34008KT 4SM RA OVC008
     FM270500 32012G18KT 5SM -RA OVC008
     FM271100 29010G16KT P6SM OVC010
     FM271700 27013G19KT P6SM SCT030
     FM272000 26012KT P6SM SCT250=

USA.gov is the U.S. government's official web portal to all federal, state and local government web resources and services.